Time;durP1;ratioP1;P1;durP2;ratioP2;P2;SDS_P1;SDS_P2;PMS_P1;PMS_P2;Temp;Humidity;BMP_temperature;BMP_pressure;BME280_temperature;BME280_humidity;BME280_pressure;Samples;Min_cycle;Max_cycle;Signal;HPM_P1;HPM_P2
2024/01/25 00:02:06;;;;;;;19.27;8.02;;;;;;;1.64;71.73;98848.56;4952897;28;20035;-61
2024/01/25 00:04:36;;;;;;;14.70;7.15;;;;;;;1.75;71.86;98866.66;4932726;28;20058;-62
2024/01/25 00:07:02;;;;;;;16.42;6.60;;;;;;;1.69;71.62;98862.28;4949403;28;20043;-61
2024/01/25 00:09:28;;;;;;;16.42;7.43;;;;;;;1.64;71.48;98846.84;4915731;28;20067;-62
2024/01/25 00:11:54;;;;;;;16.00;7.50;;;;;;;1.69;72.12;98857.16;4915238;28;20039;-60
2024/01/25 00:14:20;;;;;;;13.82;6.65;;;;;;;1.61;71.71;98838.28;4952103;28;20047;-61
2024/01/25 00:16:46;;;;;;;15.85;5.90;;;;;;;1.65;71.61;98847.72;4930769;28;20039;-62
2024/01/25 00:19:12;;;;;;;17.30;7.15;;;;;;;1.53;71.66;98830.50;4930995;28;20047;-61
2024/01/25 00:21:45;;;;;;;15.98;7.03;;;;;;;1.58;71.78;98831.38;4931710;28;20043;-63
2024/01/25 00:24:13;;;;;;;15.43;7.03;;;;;;;1.62;71.68;98834.88;4916755;28;20066;-62
2024/01/25 00:26:42;;;;;;;14.93;6.53;;;;;;;1.62;71.49;98834.88;4937494;28;20046;-61
2024/01/25 00:29:08;;;;;;;18.05;7.05;;;;;;;1.65;71.59;98830.63;4948604;28;20063;-60
2024/01/25 00:31:34;;;;;;;14.57;6.88;;;;;;;1.61;71.68;98804.94;4931717;28;20046;-62
2024/01/25 00:34:02;;;;;;;14.80;6.65;;;;;;;1.71;71.63;98817.00;4932017;28;20051;-62
2024/01/25 00:36:28;;;;;;;14.77;7.25;;;;;;;1.70;71.47;98822.13;4933982;28;20094;-63
2024/01/25 00:38:57;;;;;;;15.95;6.20;;;;;;;1.68;71.58;98819.53;4920599;28;20051;-62
2024/01/25 00:41:27;;;;;;;14.80;7.10;;;;;;;1.60;71.24;98790.38;4947348;28;20048;-62
2024/01/25 00:43:53;;;;;;;15.77;6.20;;;;;;;1.64;71.34;98817.78;4915854;28;20039;-62
2024/01/25 00:46:27;;;;;;;13.10;6.43;;;;;;;1.64;71.33;98812.66;4950762;28;20043;-61
2024/01/25 00:48:56;;;;;;;14.27;6.80;;;;;;;1.65;71.41;98810.09;4914090;28;20043;-60
2024/01/25 00:51:25;;;;;;;11.52;5.85;;;;;;;1.65;71.14;98799.00;4947303;28;20043;-61
2024/01/25 00:53:51;;;;;;;13.95;6.13;;;;;;;1.60;71.45;98814.31;4949826;28;21857;-62
2024/01/25 00:56:18;;;;;;;14.18;5.80;;;;;;;1.61;71.62;98797.22;4931772;28;20039;-60
2024/01/25 00:58:44;;;;;;;12.63;6.47;;;;;;;1.62;71.29;98802.38;4932567;28;20135;-61
2024/01/25 01:01:11;;;;;;;10.55;5.00;;;;;;;1.58;71.03;98797.19;4952716;28;20055;-60
2024/01/25 01:03:37;;;;;;;15.07;6.70;;;;;;;1.61;71.32;98792.09;4934896;28;20561;-63
2024/01/25 01:06:04;;;;;;;12.57;5.55;;;;;;;1.58;70.89;98802.31;4909852;28;20039;-60
2024/01/25 01:08:30;;;;;;;13.90;6.13;;;;;;;1.47;71.05;98784.25;4952037;28;20395;-61
2024/01/25 01:10:56;;;;;;;13.93;6.10;;;;;;;1.50;71.28;98782.56;4924344;28;20047;-63
2024/01/25 01:13:22;;;;;;;16.90;6.15;;;;;;;1.59;71.01;98797.19;4934704;28;20103;-61
2024/01/25 01:15:48;;;;;;;12.80;6.13;;;;;;;1.53;71.26;98784.31;4953804;28;20502;-61
2024/01/25 01:18:14;;;;;;;13.85;6.72;;;;;;;1.47;70.75;98774.84;4934464;28;20039;-62
2024/01/25 01:20:41;;;;;;;13.43;6.35;;;;;;;1.49;70.93;98780.84;4954878;28;20106;-62
2024/01/25 01:23:07;;;;;;;15.00;5.82;;;;;;;1.48;70.69;98780.84;4940632;28;20056;-62
2024/01/25 01:25:33;;;;;;;11.80;6.00;;;;;;;1.51;71.25;98780.88;4935012;28;20051;-61
2024/01/25 01:27:59;;;;;;;14.48;6.55;;;;;;;1.48;71.03;98763.75;4919616;28;20035;-61
2024/01/25 01:30:27;;;;;;;16.65;6.60;;;;;;;1.42;70.95;98753.44;4940421;28;20054;-61
2024/01/25 01:32:54;;;;;;;14.30;6.03;;;;;;;1.37;70.99;98734.56;4935024;28;20047;-61
2024/01/25 01:35:23;;;;;;;14.77;6.80;;;;;;;1.28;70.81;98721.63;4934829;28;20164;-60
2024/01/25 01:37:52;;;;;;;19.80;6.95;;;;;;;1.34;71.24;98742.22;4908381;28;21120;-60
2024/01/25 01:40:18;;;;;;;16.02;6.63;;;;;;;1.39;71.36;98737.13;4941198;28;20039;-60
2024/01/25 01:42:44;;;;;;;14.10;6.45;;;;;;;1.32;71.09;98743.91;4951999;28;20418;-60
2024/01/25 01:45:12;;;;;;;15.18;6.88;;;;;;;1.32;70.88;98741.34;4934704;28;20040;-61
2024/01/25 01:47:39;;;;;;;17.08;6.88;;;;;;;1.23;70.82;98736.09;4936111;28;20066;-62
2024/01/25 01:50:08;;;;;;;17.02;7.07;;;;;;;1.30;71.08;98745.59;4954850;28;20053;-62
2024/01/25 01:52:34;;;;;;;14.50;7.30;;;;;;;1.32;71.48;98752.47;4950518;28;20035;-61
2024/01/25 01:55:00;;;;;;;16.35;7.22;;;;;;;1.33;71.45;98751.59;4939060;28;20134;-61
2024/01/25 01:57:27;;;;;;;21.02;7.47;;;;;;;1.27;71.48;98737.84;4918713;28;20159;-63
2024/01/25 02:00:00;;;;;;;17.90;7.18;;;;;;;1.28;71.29;98737.00;4930847;28;20055;-61
2024/01/25 02:02:26;;;;;;;14.40;6.95;;;;;;;1.26;71.74;98747.25;4932851;28;20449;-61
2024/01/25 02:04:53;;;;;;;17.42;6.07;;;;;;;1.26;70.75;98733.56;4923793;28;20062;-62
2024/01/25 02:07:19;;;;;;;15.43;6.63;;;;;;;1.24;71.18;98735.25;4932461;28;20181;-60
2024/01/25 02:09:47;;;;;;;15.45;6.03;;;;;;;1.19;71.40;98742.91;4938951;28;21065;-60
2024/01/25 02:12:17;;;;;;;15.23;6.28;;;;;;;1.11;71.51;98719.75;4952626;28;20041;-61
2024/01/25 02:14:43;;;;;;;18.92;7.72;;;;;;;1.10;71.41;98733.41;4949167;28;20040;-61
2024/01/25 02:17:09;;;;;;;14.48;6.32;;;;;;;1.00;71.38;98718.75;4935515;28;20047;-61
2024/01/25 02:19:36;;;;;;;15.40;6.30;;;;;;;1.08;71.74;98750.44;4930146;28;20122;-61
2024/01/25 02:22:08;;;;;;;14.20;6.60;;;;;;;0.95;71.42;98739.19;4918960;28;20127;-61
2024/01/25 02:24:34;;;;;;;15.15;7.15;;;;;;;0.95;71.78;98733.22;4917937;28;20051;-60
2024/01/25 02:27:01;;;;;;;14.85;6.45;;;;;;;0.97;71.42;98741.78;4915609;28;20488;-62
2024/01/25 02:29:31;;;;;;;16.83;6.00;;;;;;;0.93;71.73;98743.44;4939506;28;20047;-63
2024/01/25 02:32:07;;;;;;;13.95;5.80;;;;;;;0.81;71.77;98721.06;4921170;28;20037;-62
2024/01/25 02:34:40;;;;;;;13.60;6.50;;;;;;;0.97;71.70;98746.91;4935415;28;20078;-63
2024/01/25 02:37:12;;;;;;;14.68;5.95;;;;;;;0.54;71.76;98681.47;4935037;28;20055;-63
2024/01/25 02:39:38;;;;;;;12.02;6.38;;;;;;;0.66;71.42;98703.81;4952091;28;20046;-62
2024/01/25 02:42:05;;;;;;;14.63;6.32;;;;;;;0.68;71.48;98709.81;4907423;28;20039;-61
2024/01/25 02:44:32;;;;;;;16.80;6.50;;;;;;;0.83;72.13;98731.34;4948650;28;20186;-61
2024/01/25 02:46:58;;;;;;;12.57;5.53;;;;;;;0.87;71.68;98728.84;4933967;28;20125;-62
2024/01/25 02:49:26;;;;;;;11.10;5.15;;;;;;;0.90;72.10;98723.75;4937840;28;20130;-63
2024/01/25 02:51:53;;;;;;;15.27;6.35;;;;;;;0.86;72.46;98714.31;4949393;28;20043;-61
2024/01/25 02:54:18;;;;;;;12.25;5.18;;;;;;;0.93;72.16;98740.88;4934159;28;20049;-61
2024/01/25 02:56:45;;;;;;;12.82;6.63;;;;;;;0.86;72.14;98731.41;4939176;28;20130;-62
2024/01/25 02:59:11;;;;;;;14.07;5.88;;;;;;;0.79;72.34;98721.91;4951130;28;20075;-61
2024/01/25 03:01:39;;;;;;;12.48;6.22;;;;;;;0.68;72.13;98714.06;4927703;28;20154;-61
2024/01/25 03:04:05;;;;;;;12.68;5.57;;;;;;;0.62;72.45;98701.19;4938197;29;20061;-63
2024/01/25 03:06:32;;;;;;;15.88;6.88;;;;;;;0.72;72.48;98703.88;4920992;28;20130;-60
2024/01/25 03:08:58;;;;;;;12.95;6.22;;;;;;;0.88;72.55;98720.31;4941059;29;20035;-62
2024/01/25 03:11:25;;;;;;;12.88;6.10;;;;;;;0.77;72.67;98718.47;4939411;28;20058;-60
2024/01/25 03:13:51;;;;;;;13.05;4.95;;;;;;;0.78;71.67;98718.47;4939311;28;20043;-61
2024/01/25 03:16:17;;;;;;;11.85;5.63;;;;;;;0.60;72.01;98714.81;4938538;28;20560;-62
2024/01/25 03:18:46;;;;;;;14.38;6.10;;;;;;;0.65;72.83;98721.72;4935129;28;20561;-61
2024/01/25 03:21:12;;;;;;;13.40;6.03;;;;;;;0.60;72.36;98712.25;4924947;28;20039;-60
2024/01/25 03:23:39;;;;;;;15.35;6.68;;;;;;;0.63;72.49;98710.59;4941372;28;20047;-61
2024/01/25 03:26:05;;;;;;;14.07;5.47;;;;;;;0.58;72.42;98702.84;4937413;28;20035;-61
2024/01/25 03:28:31;;;;;;;12.48;5.40;;;;;;;0.42;72.46;98688.97;4936695;28;20058;-62
2024/01/25 03:30:58;;;;;;;12.82;5.88;;;;;;;0.48;73.21;98683.06;4937692;28;20043;-63
2024/01/25 03:33:26;;;;;;;12.00;5.40;;;;;;;0.56;72.61;98697.69;4954994;28;20047;-63
2024/01/25 03:35:52;;;;;;;12.63;6.00;;;;;;;0.49;72.34;98698.47;4921516;28;20066;-61
2024/01/25 03:38:24;;;;;;;10.63;5.38;;;;;;;0.44;73.04;98697.53;4937655;28;20094;-62
2024/01/25 03:40:50;;;;;;;12.77;5.78;;;;;;;0.46;72.79;98698.41;4919547;28;20045;-62
2024/01/25 03:43:16;;;;;;;14.07;6.05;;;;;;;0.41;73.38;98670.19;4939151;28;20165;-60
2024/01/25 03:45:49;;;;;;;14.25;6.30;;;;;;;0.52;73.51;98685.72;4940439;28;20146;-61
2024/01/25 03:48:15;;;;;;;12.20;4.93;;;;;;;0.43;72.93;98670.22;4952216;28;20043;-62
2024/01/25 03:50:44;;;;;;;12.93;5.50;;;;;;;0.32;72.91;98659.81;4955650;28;20133;-61
2024/01/25 03:53:13;;;;;;;;;;;;;;;0.44;72.98;98671.94;4908754;28;20043;-62
2024/01/25 03:55:40;;;;;;;10.02;4.53;;;;;;;0.34;72.70;98696.53;4927251;28;19922;-62
2024/01/25 03:58:06;;;;;;;9.98;5.15;;;;;;;0.32;72.90;98685.41;4924189;28;20132;-60
2024/01/25 04:00:35;;;;;;;12.38;5.43;;;;;;;0.19;73.30;98663.91;4937073;28;20065;-62
2024/01/25 04:03:01;;;;;;;13.13;5.60;;;;;;;-0.02;73.09;98639.72;4919522;29;20103;-60
2024/01/25 04:05:27;;;;;;;8.20;4.45;;;;;;;0.10;72.94;98658.66;4937011;28;20047;-62
2024/01/25 04:07:53;;;;;;;17.08;6.60;;;;;;;0.17;73.33;98669.84;4937483;28;20043;-61
2024/01/25 04:10:20;;;;;;;13.07;6.18;;;;;;;0.09;73.12;98649.28;4937090;28;20043;-65
2024/01/25 04:12:49;;;;;;;12.20;5.95;;;;;;;0.02;73.72;98624.41;4937060;29;20039;-62
2024/01/25 04:15:15;;;;;;;16.02;6.38;;;;;;;0.06;73.45;98644.94;4951897;28;20474;-64
2024/01/25 04:17:41;;;;;;;13.93;5.50;;;;;;;-0.02;73.66;98637.16;4933561;29;20102;-63
2024/01/25 04:20:11;;;;;;;12.18;6.20;;;;;;;0.03;73.44;98641.50;4937844;28;20079;-62
2024/01/25 04:22:37;;;;;;;13.55;5.75;;;;;;;0.16;73.42;98642.53;4935057;28;20070;-64
2024/01/25 04:25:04;;;;;;;13.00;6.10;;;;;;;0.07;74.00;98633.03;4936292;28;20042;-63
2024/01/25 04:27:31;;;;;;;13.23;6.38;;;;;;;0.13;73.46;98644.22;4932927;28;20039;-64
2024/01/25 04:29:57;;;;;;;12.80;5.90;;;;;;;0.14;73.51;98642.50;4924304;29;20054;-62
2024/01/25 04:32:24;;;;;;;13.38;6.70;;;;;;;0.15;73.78;98631.44;4937350;29;20063;-64
2024/01/25 04:34:52;;;;;;;14.80;6.70;;;;;;;0.24;73.46;98672.50;4956094;28;20124;-65
2024/01/25 04:37:20;;;;;;;14.60;6.82;;;;;;;0.08;72.99;98637.31;4955251;28;20035;-63
2024/01/25 04:39:49;;;;;;;11.80;5.30;;;;;;;0.06;73.31;98647.50;4941885;28;20051;-65
2024/01/25 04:42:21;;;;;;;13.88;6.40;;;;;;;0.18;73.83;98672.41;4940304;28;20050;-63
2024/01/25 04:44:55;;;;;;;12.63;5.55;;;;;;;0.01;73.52;98645.72;4923968;28;20046;-64
2024/01/25 04:47:22;;;;;;;13.48;6.30;;;;;;;-0.08;73.82;98623.44;4939045;28;20051;-65
2024/01/25 04:49:49;;;;;;;14.77;7.05;;;;;;;0.06;74.09;98655.19;4942206;29;20054;-64
2024/01/25 04:52:16;;;;;;;14.13;7.10;;;;;;;0.17;73.92;98665.56;4921673;28;20035;-65
2024/01/25 04:54:46;;;;;;;14.30;6.47;;;;;;;0.22;74.10;98674.19;4912481;28;20054;-65
2024/01/25 04:57:12;;;;;;;17.52;7.53;;;;;;;0.25;74.26;98674.22;4955089;28;20050;-65
2024/01/25 04:59:38;;;;;;;15.23;6.97;;;;;;;0.19;73.93;98663.06;4937888;28;20058;-63
2024/01/25 05:02:04;;;;;;;17.58;7.70;;;;;;;0.30;74.27;98679.41;4939824;28;20132;-64
2024/01/25 05:04:31;;;;;;;17.95;7.53;;;;;;;0.24;74.25;98682.75;4955659;28;20058;-64
2024/01/25 05:06:58;;;;;;;16.23;7.05;;;;;;;0.20;73.92;98670.75;4935317;28;20470;-63
2024/01/25 05:09:24;;;;;;;16.48;7.38;;;;;;;0.10;73.73;98659.50;4954852;28;20058;-63
2024/01/25 05:11:58;;;;;;;14.98;7.30;;;;;;;0.18;73.80;98689.47;4924932;29;20125;-64
2024/01/25 05:14:25;;;;;;;25.70;8.25;;;;;;;0.21;74.33;98681.84;4924708;29;20143;-63
2024/01/25 05:16:56;;;;;;;14.52;7.53;;;;;;;0.02;73.60;98658.53;4937655;28;20046;-64
2024/01/25 05:19:31;;;;;;;14.40;6.60;;;;;;;-0.07;73.75;98671.19;4930583;28;20035;-66
2024/01/25 05:22:06;;;;;;;16.85;7.10;;;;;;;-0.16;73.55;98667.63;4938086;28;20405;-64
2024/01/25 05:24:33;;;;;;;15.75;7.35;;;;;;;-0.20;73.45;98654.78;4929063;28;20054;-63
2024/01/25 05:27:00;;;;;;;16.83;8.30;;;;;;;-0.06;74.44;98671.19;4938803;28;20058;-63
2024/01/25 05:29:29;;;;;;;17.45;8.27;;;;;;;-0.11;73.74;98657.47;4935546;28;20401;-65
2024/01/25 05:31:56;;;;;;;19.08;8.30;;;;;;;-0.33;74.28;98623.03;4926497;28;20036;-65
2024/01/25 05:34:22;;;;;;;16.27;7.63;;;;;;;-0.10;74.25;98648.97;4939008;29;21394;-64
2024/01/25 05:36:50;;;;;;;15.25;7.28;;;;;;;-0.21;73.79;98628.34;4931562;28;20568;-66
2024/01/25 05:39:18;;;;;;;13.25;7.30;;;;;;;-0.18;74.20;98625.81;4952818;28;20044;-65
2024/01/25 05:41:47;;;;;;;14.50;6.82;;;;;;;0.05;74.36;98670.53;4938061;28;20044;-65
2024/01/25 05:44:14;;;;;;;14.45;7.20;;;;;;;-0.20;73.62;98636.88;4918691;28;20043;-66
2024/01/25 05:46:42;;;;;;;14.10;7.43;;;;;;;0.01;74.29;98656.81;4921441;28;20047;-64
2024/01/25 05:49:09;;;;;;;17.73;8.30;;;;;;;-0.05;73.94;98644.78;4941476;28;20050;-65
2024/01/25 05:51:35;;;;;;;16.67;7.18;;;;;;;0.09;74.43;98641.59;4937164;28;20188;-64
2024/01/25 05:54:02;;;;;;;13.35;7.13;;;;;;;-0.07;74.04;98637.94;4955404;28;20047;-64
2024/01/25 05:56:35;;;;;;;18.35;8.27;;;;;;;0.12;74.26;98665.50;4930059;28;20047;-64
2024/01/25 05:59:05;;;;;;;15.90;7.35;;;;;;;0.10;74.24;98668.91;4938446;28;20621;-64
2024/01/25 06:01:32;;;;;;;14.15;6.63;;;;;;;-0.08;73.75;98660.06;4909580;28;20050;-64
2024/01/25 06:03:58;;;;;;;14.23;5.97;;;;;;;0.03;73.47;98669.63;4935923;29;20202;-63
2024/01/25 06:06:24;;;;;;;14.25;8.43;;;;;;;0.07;73.90;98650.94;4937706;28;20046;-68
2024/01/25 06:08:53;;;;;;;14.45;7.40;;;;;;;0.14;74.34;98645.06;4935935;29;20055;-63
2024/01/25 06:11:20;;;;;;;11.52;5.68;;;;;;;0.02;73.31;98644.88;4921676;29;20047;-64
2024/01/25 06:13:48;;;;;;;13.85;6.22;;;;;;;0.00;73.31;98650.00;4940563;28;20135;-64
2024/01/25 06:16:14;;;;;;;15.18;7.45;;;;;;;0.02;73.64;98657.69;4955066;28;20066;-64
2024/01/25 06:18:41;;;;;;;14.55;6.05;;;;;;;0.03;73.91;98644.06;4924580;28;20047;-64
2024/01/25 06:21:08;;;;;;;15.32;6.15;;;;;;;-0.03;73.56;98658.47;4913803;28;20042;-64
2024/01/25 06:23:34;;;;;;;13.80;6.05;;;;;;;-0.17;73.35;98631.81;4922957;28;20138;-64
2024/01/25 06:26:01;;;;;;;15.80;6.97;;;;;;;0.11;74.52;98652.72;4924700;28;20039;-64
2024/01/25 06:28:27;;;;;;;11.13;5.82;;;;;;;0.09;73.26;98651.81;4954001;28;20058;-65
2024/01/25 06:30:53;;;;;;;11.30;5.15;;;;;;;0.02;73.56;98650.00;4918832;29;20520;-64
2024/01/25 06:33:19;;;;;;;13.30;6.78;;;;;;;0.00;72.92;98652.56;4935932;28;20570;-65
2024/01/25 06:35:47;;;;;;;13.07;5.97;;;;;;;0.03;73.50;98656.84;4920448;28;20039;-65
2024/01/25 06:38:13;;;;;;;13.32;5.88;;;;;;;0.05;73.73;98670.53;4954949;28;20039;-65
2024/01/25 06:40:40;;;;;;;11.30;4.88;;;;;;;-0.07;72.79;98643.06;4953471;28;20043;-65
2024/01/25 06:43:06;;;;;;;11.90;5.85;;;;;;;-0.03;73.62;98643.13;4920599;28;20098;-65
2024/01/25 06:45:33;;;;;;;15.57;6.03;;;;;;;0.14;73.80;98660.41;4924734;28;20121;-66
2024/01/25 06:47:59;;;;;;;14.55;5.97;;;;;;;-0.12;72.89;98616.53;4920619;28;20054;-64
2024/01/25 06:50:28;;;;;;;13.75;6.30;;;;;;;-0.11;73.08;98618.25;4935343;29;20058;-64
2024/01/25 06:52:55;;;;;;;11.98;5.63;;;;;;;0.16;73.42;98663.00;4938265;28;20466;-68
2024/01/25 06:55:21;;;;;;;13.00;5.68;;;;;;;0.06;72.97;98639.81;4922905;28;20051;-66
2024/01/25 06:57:49;;;;;;;10.52;5.07;;;;;;;0.03;73.12;98636.38;4923801;28;20070;-64
2024/01/25 07:00:15;;;;;;;12.15;6.15;;;;;;;-0.02;73.10;98634.59;4951516;28;20063;-63
2024/01/25 07:02:42;;;;;;;12.85;5.95;;;;;;;0.11;73.09;98663.78;4922314;28;20046;-66
2024/01/25 07:05:09;;;;;;;12.88;5.70;;;;;;;-0.04;73.14;98625.19;4907384;28;20609;-63
2024/01/25 07:07:38;;;;;;;15.38;6.60;;;;;;;0.17;73.08;98645.09;4951436;28;20054;-64
2024/01/25 07:10:10;;;;;;;7.97;4.65;;;;;;;0.27;72.39;98676.81;4936147;29;20042;-66
2024/01/25 07:12:36;;;;;;;12.32;5.70;;;;;;;0.09;72.88;98659.50;4935206;28;20059;-65
2024/01/25 07:15:03;;;;;;;10.15;5.20;;;;;;;0.06;72.57;98656.88;4935819;29;20063;-66
2024/01/25 07:17:30;;;;;;;14.23;6.55;;;;;;;0.10;72.96;98656.09;4937770;28;20063;-63
2024/01/25 07:19:56;;;;;;;11.13;6.00;;;;;;;0.00;72.35;98621.84;4936948;28;20122;-64
2024/01/25 07:22:23;;;;;;;13.18;5.82;;;;;;;0.28;72.45;98658.06;4939469;28;20039;-64
2024/01/25 07:24:49;;;;;;;13.10;6.00;;;;;;;0.32;72.98;98638.50;4907952;28;20134;-63
2024/01/25 07:27:19;;;;;;;11.55;5.65;;;;;;;0.39;71.82;98665.88;4954008;28;20462;-64
2024/01/25 07:29:45;;;;;;;11.52;4.95;;;;;;;0.40;72.18;98675.28;4932062;28;20139;-64
2024/01/25 07:32:15;;;;;;;11.40;5.07;;;;;;;0.38;71.96;98662.47;4955002;28;20059;-64
2024/01/25 07:34:41;;;;;;;10.38;5.20;;;;;;;0.33;71.74;98670.94;4921307;28;20054;-64
2024/01/25 07:37:07;;;;;;;11.95;5.18;;;;;;;0.31;72.48;98649.56;4937024;28;20047;-63
2024/01/25 07:39:34;;;;;;;8.65;5.05;;;;;;;0.31;71.70;98649.56;4956316;28;20094;-63
2024/01/25 07:42:01;;;;;;;12.15;5.45;;;;;;;0.35;72.32;98652.19;4959695;28;20588;-63
2024/01/25 07:44:29;;;;;;;10.75;4.75;;;;;;;0.42;71.94;98658.25;4913749;28;20046;-63
2024/01/25 07:46:55;;;;;;;12.15;5.57;;;;;;;0.53;72.60;98651.59;4927839;28;20500;-64
2024/01/25 07:49:24;;;;;;;11.35;5.78;;;;;;;0.41;72.12;98616.44;4958862;28;20127;-63
2024/01/25 07:52:04;;;;;;;8.95;4.78;;;;;;;0.81;71.97;98659.59;4957085;28;20062;-62
2024/01/25 07:54:33;;;;;;;9.35;5.65;;;;;;;0.74;72.04;98645.03;4941320;28;20089;-64
2024/01/25 07:57:00;;;;;;;12.32;5.80;;;;;;;0.75;70.82;98645.03;4943954;29;20089;-62
2024/01/25 07:59:30;;;;;;;10.45;5.32;;;;;;;0.77;71.49;98657.88;4941176;28;20065;-62
2024/01/25 08:01:56;;;;;;;11.35;5.50;;;;;;;0.63;71.45;98642.31;4944690;28;20084;-63
2024/01/25 08:04:22;;;;;;;9.32;5.50;;;;;;;0.76;71.10;98658.72;4943024;28;20039;-62
2024/01/25 08:06:49;;;;;;;11.73;5.45;;;;;;;0.84;71.55;98643.44;4956051;28;21848;-62
2024/01/25 08:09:18;;;;;;;10.18;4.45;;;;;;;0.71;70.78;98633.00;4928433;28;20697;-61
2024/01/25 08:11:47;;;;;;;11.63;5.20;;;;;;;0.53;71.22;98612.31;4942755;28;20497;-62
2024/01/25 08:14:12;;;;;;;11.25;4.78;;;;;;;0.86;71.31;98652.84;4960013;28;20038;-63
2024/01/25 08:16:39;;;;;;;9.82;5.07;;;;;;;0.74;70.87;98650.97;4927067;28;20035;-65
2024/01/25 08:19:05;;;;;;;11.70;5.30;;;;;;;0.77;70.40;98657.88;4943423;29;20463;-67
2024/01/25 08:21:35;;;;;;;12.57;5.80;;;;;;;0.64;71.14;98604.75;4910081;28;20042;-62
2024/01/25 08:24:05;;;;;;;10.52;4.40;;;;;;;1.02;70.85;98660.69;4921765;29;20047;-67
2024/01/25 08:26:34;;;;;;;13.07;5.65;;;;;;;1.04;70.82;98674.38;4938587;28;20035;-62
2024/01/25 08:29:05;;;;;;;10.88;5.68;;;;;;;1.07;71.29;98655.66;4957626;28;20567;-63
2024/01/25 08:31:34;;;;;;;10.32;5.10;;;;;;;0.95;70.32;98638.44;4941210;28;20122;-63
2024/01/25 08:34:02;;;;;;;10.00;4.72;;;;;;;1.05;70.41;98659.03;4939726;28;20055;-62
2024/01/25 08:36:31;;;;;;;11.07;6.07;;;;;;;1.05;70.36;98666.72;4926765;28;20040;-62
2024/01/25 08:38:58;;;;;;;12.93;6.18;;;;;;;1.15;70.88;98651.44;4937997;28;20050;-63
2024/01/25 08:41:24;;;;;;;11.15;5.85;;;;;;;1.16;70.39;98632.66;4930176;29;20039;-64
2024/01/25 08:43:50;;;;;;;13.45;6.28;;;;;;;1.26;70.39;98649.00;4938106;29;20086;-62
2024/01/25 08:46:18;;;;;;;12.20;5.85;;;;;;;1.23;70.09;98652.41;4957846;28;20319;-62
2024/01/25 08:48:44;;;;;;;12.82;5.97;;;;;;;1.23;70.77;98641.25;4939473;28;20043;-66
2024/01/25 08:51:14;;;;;;;10.30;5.30;;;;;;;1.22;69.52;98658.34;4919740;28;20059;-62
2024/01/25 08:53:40;;;;;;;15.30;6.47;;;;;;;1.19;70.06;98648.94;4940542;28;20036;-61
2024/01/25 08:56:06;;;;;;;12.68;6.00;;;;;;;1.18;69.94;98651.47;4956244;28;20054;-63
2024/01/25 08:58:36;;;;;;;12.15;6.10;;;;;;;1.22;69.46;98645.53;4924389;29;20179;-62
2024/01/25 09:01:11;;;;;;;12.38;6.22;;;;;;;1.18;69.46;98644.66;4942270;28;20071;-62
2024/01/25 09:03:41;;;;;;;12.52;6.40;;;;;;;1.37;70.10;98643.97;4938534;28;20039;-62
2024/01/25 09:06:07;;;;;;;11.48;6.07;;;;;;;1.42;69.66;98638.06;4953239;28;20139;-61
2024/01/25 09:08:36;;;;;;;11.38;5.60;;;;;;;1.40;69.35;98633.75;4954220;28;20119;-63
2024/01/25 09:11:02;;;;;;;13.32;7.03;;;;;;;1.46;69.79;98621.84;4931190;28;20035;-60
2024/01/25 09:13:29;;;;;;;16.55;7.60;;;;;;;1.59;69.13;98648.44;4956435;28;20062;-61
2024/01/25 09:15:56;;;;;;;16.42;7.85;;;;;;;1.52;68.50;98644.13;4936735;28;20047;-62
2024/01/25 09:18:22;;;;;;;14.60;6.93;;;;;;;1.55;69.01;98631.31;4954486;28;20047;-62
2024/01/25 09:20:54;;;;;;;16.95;7.57;;;;;;;1.57;68.42;98647.56;4958054;28;20040;-63
2024/01/25 09:23:20;;;;;;;14.27;6.75;;;;;;;1.58;68.95;98664.69;4941655;29;20019;-63
2024/01/25 09:25:46;;;;;;;15.30;6.53;;;;;;;1.57;68.57;98631.34;4940923;28;20046;-62
2024/01/25 09:28:13;;;;;;;12.00;6.25;;;;;;;1.71;69.00;98640.00;4939731;28;20118;-62
2024/01/25 09:30:40;;;;;;;13.45;6.45;;;;;;;1.74;68.55;98618.66;4942643;28;20042;-65
2024/01/25 09:33:09;;;;;;;12.95;6.13;;;;;;;1.76;67.75;98658.03;4960992;28;20035;-63
2024/01/25 09:35:35;;;;;;;13.38;6.40;;;;;;;1.50;67.98;98615.06;4960771;28;20058;-63
2024/01/25 09:38:04;;;;;;;13.32;6.82;;;;;;;1.62;68.13;98635.66;4957942;28;20041;-61
2024/01/25 09:40:30;;;;;;;14.23;6.82;;;;;;;1.74;68.58;98647.72;4960217;28;20074;-61
2024/01/25 09:42:56;;;;;;;12.18;6.53;;;;;;;1.65;67.24;98632.28;4941653;28;20043;-62
2024/01/25 09:45:24;;;;;;;13.25;6.07;;;;;;;1.55;67.22;98640.72;4945182;28;20063;-64
2024/01/25 09:47:52;;;;;;;13.18;6.18;;;;;;;1.54;67.33;98641.56;4941945;29;20050;-64
2024/01/25 09:50:23;;;;;;;13.35;6.28;;;;;;;1.42;67.41;98614.13;4926299;28;20071;-63
2024/01/25 09:52:59;;;;;;;11.60;6.15;;;;;;;1.43;66.78;98614.16;4943367;28;20054;-62
2024/01/25 09:55:27;;;;;;;12.07;5.93;;;;;;;1.58;67.65;98630.50;4960934;28;20101;-62
2024/01/25 09:58:07;;;;;;;12.75;6.72;;;;;;;1.70;67.89;98628.03;4960523;28;20043;-62
2024/01/25 10:00:36;;;;;;;14.93;6.97;;;;;;;1.70;67.38;98622.91;4959925;28;20066;-62
2024/01/25 10:03:03;;;;;;;14.52;6.80;;;;;;;1.84;67.47;98620.44;4956856;28;20134;-63
2024/01/25 10:05:33;;;;;;;15.75;7.40;;;;;;;1.82;67.32;98606.75;4925137;28;20091;-64
2024/01/25 10:08:01;;;;;;;15.13;7.28;;;;;;;1.71;66.13;98618.66;4940863;28;20043;-62
2024/01/25 10:10:32;;;;;;;16.20;8.25;;;;;;;1.56;66.86;98609.97;4924930;29;20505;-64
2024/01/25 10:13:03;;;;;;;16.23;7.43;;;;;;;1.63;67.43;98598.06;4940692;28;20074;-63
2024/01/25 10:15:33;;;;;;;15.77;7.55;;;;;;;1.71;66.68;98609.22;4929287;28;20035;-66
2024/01/25 10:18:12;;;;;;;13.35;6.93;;;;;;;1.63;66.42;98605.75;4942176;29;20047;-63
2024/01/25 10:20:45;;;;;;;14.18;6.78;;;;;;;1.56;66.76;98602.25;4941343;29;20043;-64
2024/01/25 10:23:17;;;;;;;17.60;7.10;;;;;;;1.33;66.56;98571.31;4939393;29;20039;-63
2024/01/25 10:25:56;;;;;;;14.00;7.32;;;;;;;1.61;67.21;98599.75;4959840;28;20055;-66
2024/01/25 10:28:25;;;;;;;14.80;7.25;;;;;;;1.57;66.23;98609.13;4922102;28;20039;-66
2024/01/25 10:31:04;;;;;;;12.27;6.88;;;;;;;1.49;66.09;98614.19;4956219;28;20043;-64
2024/01/25 10:33:31;;;;;;;15.88;7.60;;;;;;;1.44;67.16;98605.59;4938177;29;20031;-63
2024/01/25 10:36:34;;;;;;;15.75;7.53;;;;;;;1.45;66.95;98620.13;4956208;28;20130;-66
2024/01/25 10:39:09;;;;;;;13.93;7.03;;;;;;;1.38;67.17;98600.41;4938125;28;20047;-65
2024/01/25 10:41:35;;;;;;;13.98;6.95;;;;;;;1.46;67.64;98600.50;4957967;28;20039;-65
2024/01/25 10:44:09;;;;;;;17.27;6.68;;;;;;;1.44;67.15;98599.59;4956185;28;20517;-63
2024/01/25 10:46:40;;;;;;;16.92;7.47;;;;;;;1.49;67.19;98608.22;4926822;28;20043;-65
2024/01/25 10:49:10;;;;;;;15.20;7.28;;;;;;;1.23;66.98;98583.19;4938229;28;20062;-66
2024/01/25 10:51:45;;;;;;;14.63;6.78;;;;;;;1.28;66.39;98617.41;4957530;28;20086;-65
2024/01/25 10:54:20;;;;;;;16.05;8.25;;;;;;;1.15;67.64;98626.69;4952901;28;20134;-65
2024/01/25 10:56:49;;;;;;;16.50;6.93;;;;;;;1.01;67.31;98616.28;4957896;28;20046;-63
2024/01/25 10:59:17;;;;;;;13.82;6.90;;;;;;;1.08;67.17;98624.91;4956782;28;20090;-65
2024/01/25 11:01:56;;;;;;;;;;;;;;;;;;;;;
2024/01/25 11:04:25;;;;;;;17.40;7.72;;;;;;;0.96;67.69;98632.47;4954371;28;20075;-62
2024/01/25 11:07:13;;;;;;;13.68;6.53;;;;;;;1.01;66.87;98626.53;4940383;28;20066;-65
2024/01/25 11:09:40;;;;;;;15.20;7.35;;;;;;;0.89;67.83;98622.13;4940195;28;20043;-64
2024/01/25 11:12:14;;;;;;;15.05;7.60;;;;;;;0.94;68.09;98629.03;4940589;28;20057;-63
2024/01/25 11:14:43;;;;;;;17.23;7.55;;;;;;;1.01;67.85;98633.34;4925465;28;20039;-63
2024/01/25 11:17:24;;;;;;;18.13;7.57;;;;;;;1.05;68.27;98619.72;4938184;28;20043;-62
2024/01/25 11:19:50;;;;;;;15.88;7.30;;;;;;;0.96;67.60;98607.69;4938786;28;20065;-65
2024/01/25 11:22:18;;;;;;;15.75;7.95;;;;;;;1.00;68.10;98621.38;4957878;28;20051;-63
2024/01/25 11:24:50;;;;;;;13.95;7.00;;;;;;;0.66;67.67;98559.56;4922399;28;21042;-63
2024/01/25 11:27:20;;;;;;;20.05;8.90;;;;;;;1.01;67.97;98610.28;4942540;28;20509;-63
2024/01/25 11:29:49;;;;;;;15.50;7.78;;;;;;;1.15;67.50;98621.56;4925478;28;20054;-64
2024/01/25 11:32:14;;;;;;;16.92;7.60;;;;;;;1.17;68.58;98617.31;4943061;28;20047;-63
2024/01/25 11:34:40;;;;;;;16.92;7.05;;;;;;;1.08;67.78;98599.28;4930351;29;20053;-64
2024/01/25 11:37:07;;;;;;;14.27;7.55;;;;;;;0.93;67.73;98602.53;4943316;28;20039;-62
2024/01/25 11:39:34;;;;;;;17.02;8.10;;;;;;;0.81;67.85;98599.84;4927056;28;20493;-64